createdAt,value
2018-11-02T00:00:40.203Z,86.56
2018-11-02T00:03:09.784Z,87.08
2018-11-02T00:05:38.890Z,87.04
2018-11-02T00:08:13.311Z,86.31
2018-11-02T00:10:42.367Z,86.55
2018-11-02T00:13:11.636Z,86.48
2018-11-02T00:15:40.578Z,86.78
2018-11-02T00:18:09.487Z,86.41
2018-11-02T00:20:38.694Z,86.59
2018-11-02T00:23:07.645Z,86.59
2018-11-02T00:25:36.518Z,86.72
2018-11-02T00:28:06.784Z,86.21
2018-11-02T00:30:35.910Z,84.82
2018-11-02T00:33:05.211Z,85.63
2018-11-02T00:35:34.550Z,86.32
2018-11-02T00:38:04.808Z,86.89
2018-11-02T00:40:33.868Z,86.88
2018-11-02T00:43:02.838Z,87.09
2018-11-02T00:45:31.836Z,87.09
2018-11-02T00:48:01.195Z,86.80
2018-11-02T00:50:30.166Z,86.45
2018-11-02T00:52:59.107Z,86.55
2018-11-02T00:55:28.465Z,87.07
2018-11-02T00:57:57.556Z,87.08
2018-11-02T01:00:30.180Z,87.58
2018-11-02T01:02:59.504Z,87.75
2018-11-02T01:05:28.495Z,87.86
2018-11-02T01:07:57.413Z,87.54
2018-11-02T01:10:26.619Z,87.89
2018-11-02T01:12:55.658Z,88.30
2018-11-02T01:15:24.594Z,88.44
2018-11-02T01:17:53.788Z,88.24
2018-11-02T01:20:22.714Z,88.51
2018-11-02T01:22:51.684Z,88.68
2018-11-02T01:25:20.919Z,88.70
2018-11-02T01:27:49.794Z,88.81
2018-11-02T01:30:18.763Z,88.72
2018-11-02T01:32:48.071Z,88.12
2018-11-02T01:35:16.940Z,87.85
2018-11-02T01:37:45.865Z,88.95
2018-11-02T01:40:15.147Z,88.98
2018-11-02T01:42:44.087Z,89.35
2018-11-02T01:45:13.011Z,89.46
2018-11-02T01:47:42.194Z,89.46
2018-11-02T01:50:11.104Z,89.17
2018-11-02T01:52:40.061Z,89.37
2018-11-02T01:55:16.779Z,89.17
2018-11-02T01:57:45.626Z,89.66
2018-11-02T02:00:14.774Z,88.90
2018-11-02T02:02:43.839Z,89.36
2018-11-02T02:05:12.832Z,89.19
2018-11-02T02:07:42.074Z,89.19
2018-11-02T02:10:11.022Z,89.15
2018-11-02T02:12:40.011Z,89.05
2018-11-02T02:15:10.264Z,89.39
2018-11-02T02:17:39.311Z,89.10
2018-11-02T02:20:08.784Z,88.91
2018-11-02T02:22:38.069Z,89.14
2018-11-02T02:25:08.459Z,89.28
2018-11-02T02:27:37.834Z,88.97
2018-11-02T02:30:11.209Z,88.75
2018-11-02T02:32:40.240Z,88.87
2018-11-02T02:35:09.965Z,88.90
2018-11-02T02:37:39.858Z,88.84
2018-11-02T02:40:10.702Z,88.76
2018-11-02T02:42:40.303Z,88.81
2018-11-02T02:45:10.159Z,88.16
2018-11-02T02:47:39.591Z,88.29
2018-11-02T02:50:11.049Z,88.42
2018-11-02T02:52:39.985Z,88.24
2018-11-02T02:55:09.572Z,88.57
2018-11-02T02:57:39.210Z,88.45
2018-11-02T03:00:10.540Z,88.20
2018-11-02T03:02:39.617Z,88.16
2018-11-02T03:05:09.141Z,87.81
2018-11-02T03:07:38.159Z,87.79
2018-11-02T03:10:07.487Z,88.49
2018-11-02T03:12:36.856Z,87.76
2018-11-02T03:15:06.161Z,88.01
2018-11-02T03:17:35.310Z,87.88
2018-11-02T03:20:06.755Z,88.25
2018-11-02T03:22:35.753Z,88.17
2018-11-02T03:25:04.705Z,87.94
2018-11-02T03:27:33.991Z,87.16
2018-11-02T03:30:05.595Z,87.97
2018-11-02T03:32:34.513Z,88.25
2018-11-02T03:35:03.893Z,88.26
2018-11-02T03:37:32.802Z,88.57
2018-11-02T03:40:03.468Z,88.32
2018-11-02T03:42:32.491Z,88.04
2018-11-02T03:45:01.378Z,88.33
2018-11-02T03:47:30.524Z,88.27
2018-11-02T03:49:59.495Z,88.19
2018-11-02T03:52:28.474Z,88.25
2018-11-02T03:54:59.416Z,87.89
2018-11-02T03:57:28.340Z,88.02
2018-11-02T03:59:57.433Z,87.88
2018-11-02T04:02:26.643Z,87.71
2018-11-02T04:04:55.636Z,87.55
2018-11-02T04:07:24.639Z,87.64
2018-11-02T04:09:53.866Z,87.54
2018-11-02T04:12:22.929Z,87.48
2018-11-02T04:14:51.873Z,87.05
2018-11-02T04:17:27.286Z,87.51
2018-11-02T04:19:56.249Z,87.25
2018-11-02T04:22:25.094Z,86.77
2018-11-02T04:24:55.565Z,87.06
2018-11-02T04:27:24.423Z,87.30
2018-11-02T04:29:53.647Z,87.11
2018-11-02T04:32:22.556Z,87.25
2018-11-02T04:34:51.381Z,87.09
2018-11-02T04:37:20.622Z,87.60
2018-11-02T04:39:49.628Z,87.23
2018-11-02T04:42:22.369Z,87.31
2018-11-02T04:44:51.603Z,87.43
2018-11-02T04:47:20.522Z,87.67
2018-11-02T04:49:49.429Z,87.44
2018-11-02T04:52:18.604Z,87.61
2018-11-02T04:54:47.672Z,87.47
2018-11-02T04:57:16.600Z,87.42
2018-11-02T04:59:45.955Z,87.57
2018-11-02T05:02:14.972Z,87.67
2018-11-02T05:04:44.008Z,87.29
2018-11-02T05:07:12.917Z,87.07
2018-11-02T05:09:41.867Z,86.85
2018-11-02T05:12:11.080Z,86.34
2018-11-02T05:14:40.014Z,87.01
2018-11-02T05:17:10.759Z,87.73
2018-11-02T05:19:40.142Z,87.45
2018-11-02T05:22:09.403Z,87.70
2018-11-02T05:24:38.370Z,87.73
2018-11-02T05:27:07.594Z,88.04
2018-11-02T05:29:36.545Z,87.68
2018-11-02T05:32:07.017Z,87.79
2018-11-02T05:34:36.249Z,88.25
2018-11-02T05:37:05.183Z,88.36
2018-11-02T05:39:34.173Z,87.82
2018-11-02T05:42:05.252Z,88.29
2018-11-02T05:44:34.274Z,88.55
2018-11-02T05:47:03.424Z,88.84
2018-11-02T05:49:32.386Z,88.53
2018-11-02T05:52:01.553Z,88.61
2018-11-02T05:54:31.500Z,88.95
2018-11-02T05:57:00.630Z,88.83
2018-11-02T05:59:29.551Z,88.94
2018-11-02T06:01:58.897Z,88.81
2018-11-02T06:04:29.364Z,88.44
2018-11-02T06:06:58.327Z,88.92
2018-11-02T06:09:27.706Z,89.06
2018-11-02T06:11:56.656Z,89.20
2018-11-02T06:14:25.578Z,89.41
2018-11-02T06:16:54.869Z,89.63
2018-11-02T06:19:23.786Z,89.51
2018-11-02T06:21:52.965Z,89.46
2018-11-02T06:24:22.241Z,89.65
2018-11-02T06:26:51.147Z,89.64
2018-11-02T06:29:20.117Z,89.78
2018-11-02T06:31:49.015Z,89.90
2018-11-02T06:34:17.923Z,89.97
2018-11-02T06:36:47.258Z,89.98
2018-11-02T06:39:16.375Z,90.22
2018-11-02T06:41:45.277Z,89.94
2018-11-02T06:44:14.754Z,89.69
2018-11-02T06:50:15.247Z,89.85
2018-11-02T06:52:44.129Z,89.87
2018-11-02T06:55:13.090Z,89.60
2018-11-02T06:57:42.422Z,89.77
2018-11-02T07:00:13.272Z,89.65
2018-11-02T07:02:42.268Z,89.66
2018-11-02T07:05:12.595Z,89.55
2018-11-02T07:07:41.705Z,89.28
2018-11-02T07:10:10.771Z,89.37
2018-11-02T07:12:40.082Z,89.39
2018-11-02T07:15:09.222Z,89.01
2018-11-02T07:17:38.207Z,88.31
2018-11-02T07:20:08.635Z,87.17
2018-11-02T07:22:37.640Z,85.95
2018-11-02T07:25:07.189Z,84.95
2018-11-02T07:27:36.068Z,84.02
2018-11-02T07:30:07.754Z,82.95
2018-11-02T07:32:37.143Z,81.85
2018-11-02T07:35:06.576Z,81.09
2018-11-02T07:37:35.632Z,79.70
2018-11-02T07:40:06.440Z,78.42
2018-11-02T07:42:35.371Z,77.57
2018-11-02T07:45:08.137Z,76.52
2018-11-02T07:47:37.434Z,75.47
2018-11-02T07:50:11.210Z,75.04
2018-11-02T07:52:40.188Z,74.28
2018-11-02T07:55:12.280Z,72.77
2018-11-02T07:57:41.259Z,72.40
2018-11-02T08:00:12.762Z,71.00
2018-11-02T08:02:43.902Z,70.59
2018-11-02T08:05:13.516Z,69.20
2018-11-02T08:07:42.576Z,68.10
2018-11-02T08:10:11.570Z,66.55
2018-11-02T08:12:47.253Z,66.15
2018-11-02T08:15:16.601Z,64.08
2018-11-02T08:17:45.562Z,62.09
2018-11-02T08:20:14.897Z,59.97
2018-11-02T08:22:45.630Z,57.24
2018-11-02T08:25:17.986Z,55.85
2018-11-02T08:30:21.742Z,51.60
2018-11-02T08:32:51.280Z,52.35
2018-11-02T08:35:20.198Z,50.58
2018-11-02T08:40:28.636Z,46.37
2018-11-02T08:42:58.839Z,47.24
2018-11-02T08:45:27.982Z,45.22
2018-11-02T08:50:37.120Z,45.84
2018-11-02T08:53:06.635Z,45.96
2018-11-02T08:55:35.514Z,47.11
2018-11-02T08:58:13.827Z,45.75
2018-11-02T09:00:43.851Z,48.05
2018-11-02T09:03:12.769Z,47.50
2018-11-02T09:05:42.136Z,45.65
2018-11-02T09:08:11.127Z,44.59
2018-11-02T09:10:41.904Z,44.08
2018-11-02T09:13:11.211Z,43.06
2018-11-02T09:15:40.138Z,43.02
2018-11-02T09:18:09.144Z,41.26
2018-11-02T09:20:38.248Z,40.17
2018-11-02T09:23:07.374Z,39.89
2018-11-02T09:25:36.739Z,39.22
2018-11-02T09:28:07.476Z,38.22
2018-11-02T09:30:36.476Z,39.98
2018-11-02T09:33:06.737Z,38.97
2018-11-02T09:35:35.641Z,37.90
2018-11-02T09:38:07.637Z,40.42
2018-11-02T09:40:37.036Z,39.42
2018-11-02T09:43:07.181Z,38.50
2018-11-02T09:45:36.233Z,39.37
2018-11-02T09:48:06.491Z,37.90
2018-11-02T09:50:40.396Z,37.49
2018-11-02T09:53:10.413Z,37.58
2018-11-02T09:55:39.439Z,36.00
2018-11-02T09:58:08.477Z,37.19
2018-11-02T10:00:37.737Z,36.88
2018-11-02T10:03:06.727Z,35.27
2018-11-02T10:05:35.692Z,35.78
2018-11-02T10:08:06.210Z,36.17
2018-11-02T10:10:35.792Z,37.30
2018-11-02T10:13:05.548Z,37.73
2018-11-02T10:15:35.415Z,40.42
2018-11-02T10:18:06.308Z,38.31
2018-11-02T10:20:35.330Z,38.15
2018-11-02T10:23:04.725Z,37.58
2018-11-02T10:25:33.884Z,37.19
2018-11-02T10:28:03.690Z,37.77
2018-11-02T10:30:32.938Z,38.51
2018-11-02T10:33:01.910Z,39.87
2018-11-02T10:35:31.424Z,38.72
2018-11-02T10:38:01.593Z,39.13
2018-11-02T10:40:32.412Z,37.46
2018-11-02T10:43:05.042Z,36.56
2018-11-02T10:45:37.366Z,36.63
2018-11-02T10:48:07.671Z,37.29
2018-11-02T10:50:37.306Z,35.25
2018-11-02T10:53:06.580Z,37.39
2018-11-02T10:55:35.746Z,38.58
2018-11-02T10:58:07.461Z,37.20
2018-11-02T11:00:41.630Z,36.31
2018-11-02T11:03:10.692Z,36.27
2018-11-02T11:05:40.058Z,36.05
2018-11-02T11:08:09.158Z,36.04
2018-11-02T11:10:38.575Z,37.18
2018-11-02T11:13:08.522Z,37.59
2018-11-02T11:15:42.454Z,36.90
2018-11-02T11:18:12.303Z,36.18
2018-11-02T11:20:41.876Z,35.68
2018-11-02T11:23:11.034Z,36.61
2018-11-02T11:25:46.041Z,36.99
2018-11-02T11:28:15.255Z,37.74
2018-11-02T11:30:44.376Z,38.54
2018-11-02T11:33:13.775Z,37.42
2018-11-02T11:35:45.365Z,37.97
2018-11-02T11:38:14.343Z,35.71
2018-11-02T11:40:44.356Z,34.99
2018-11-02T11:43:13.410Z,37.02
2018-11-02T11:45:43.363Z,36.62
2018-11-02T11:48:13.147Z,36.32
2018-11-02T11:50:42.056Z,35.63
2018-11-02T11:53:12.453Z,35.81
2018-11-02T11:55:41.544Z,36.08
2018-11-02T11:59:41.195Z,36.59
2018-11-02T12:02:10.189Z,36.10
2018-11-02T12:04:39.711Z,34.83
2018-11-02T12:07:09.208Z,36.05
2018-11-02T12:09:38.139Z,38.15
2018-11-02T12:12:07.008Z,36.47
2018-11-02T12:14:36.307Z,34.38
2018-11-02T12:17:11.238Z,36.95
2018-11-02T12:19:40.151Z,37.03
2018-11-02T12:22:09.305Z,36.39
2018-11-02T12:24:38.280Z,36.31
2018-11-02T12:27:07.266Z,37.24
2018-11-02T12:29:36.619Z,38.02
2018-11-02T12:32:06.815Z,38.54
2018-11-02T12:34:35.894Z,37.09
2018-11-02T12:37:05.065Z,37.18
2018-11-02T12:39:34.822Z,36.27
2018-11-02T12:42:05.010Z,36.85
2018-11-02T12:44:33.917Z,35.08
2018-11-02T12:47:13.642Z,36.48
2018-11-02T12:49:43.495Z,37.28
2018-11-02T12:52:12.230Z,38.95
2018-11-02T12:54:41.221Z,39.21
2018-11-02T12:57:10.700Z,40.27
2018-11-02T12:59:39.730Z,41.16
2018-11-02T13:02:08.973Z,40.08
2018-11-02T13:04:38.339Z,40.76
2018-11-02T13:07:07.521Z,41.63
2018-11-02T13:09:36.614Z,41.83
2018-11-02T13:12:07.568Z,43.54
2018-11-02T13:14:36.510Z,44.48
2018-11-02T13:17:05.632Z,43.94
2018-11-02T13:19:34.592Z,44.09
2018-11-02T13:22:04.662Z,44.03
2018-11-02T13:24:33.963Z,43.94
2018-11-02T13:27:04.110Z,43.67
2018-11-02T13:29:33.174Z,43.42
2018-11-02T13:32:04.311Z,43.18
2018-11-02T13:34:34.036Z,43.50
2018-11-02T13:37:04.210Z,42.62
2018-11-02T13:39:34.105Z,43.92
2018-11-02T13:42:06.032Z,45.28
2018-11-02T13:44:36.616Z,45.05
2018-11-02T13:47:05.871Z,44.60
2018-11-02T13:49:34.987Z,45.76
2018-11-02T13:52:05.267Z,44.76
2018-11-02T13:54:34.515Z,45.12
2018-11-02T13:57:03.672Z,46.13
2018-11-02T13:59:32.672Z,46.04
2018-11-02T14:02:03.614Z,46.71
2018-11-02T14:04:32.993Z,45.89
2018-11-02T14:07:02.417Z,46.05
2018-11-02T14:09:31.630Z,46.75
2018-11-02T14:12:00.665Z,46.46
2018-11-02T14:14:30.061Z,46.94
2018-11-02T14:16:59.040Z,46.33
2018-11-02T14:19:28.073Z,46.00
2018-11-02T14:21:57.311Z,47.49
2018-11-02T14:24:26.264Z,48.04
2018-11-02T14:29:32.430Z,49.45
2018-11-02T14:32:03.438Z,49.89
2018-11-02T14:34:37.580Z,49.58
2018-11-02T14:37:12.106Z,50.71
2018-11-02T14:39:42.279Z,50.02
2018-11-02T14:42:11.403Z,50.13
2018-11-02T14:44:40.975Z,50.92
2018-11-02T14:47:12.735Z,50.29
2018-11-02T14:49:46.513Z,50.42
2018-11-02T14:52:16.928Z,50.21
2018-11-02T14:54:51.489Z,50.83
2018-11-02T14:57:20.695Z,51.11
2018-11-02T14:59:50.077Z,51.14
2018-11-02T15:02:19.045Z,51.41
2018-11-02T15:04:48.462Z,51.47
2018-11-02T15:07:18.026Z,51.72
2018-11-02T15:09:50.170Z,52.24
2018-11-02T15:12:19.837Z,52.48
2018-11-02T15:14:49.682Z,52.79
2018-11-02T15:17:21.199Z,53.38
2018-11-02T15:19:50.254Z,52.78
2018-11-02T15:22:28.187Z,53.33
2018-11-02T15:25:00.154Z,53.56
2018-11-02T15:27:31.971Z,53.32
2018-11-02T15:30:02.423Z,53.26
2018-11-02T15:32:37.776Z,53.43
2018-11-02T15:35:08.737Z,53.61
2018-11-02T15:37:38.734Z,53.95
2018-11-02T15:40:08.839Z,53.49
2018-11-02T15:42:40.884Z,53.82
2018-11-02T15:45:12.980Z,54.05
2018-11-02T15:47:42.983Z,54.48
2018-11-02T15:50:12.466Z,54.88
2018-11-02T15:52:42.848Z,53.97
2018-11-02T15:55:13.244Z,54.66
2018-11-02T15:57:42.694Z,54.01
2018-11-02T16:00:20.612Z,54.31
2018-11-02T16:02:51.940Z,53.79
2018-11-02T16:05:31.428Z,53.77
2018-11-02T16:08:04.222Z,54.02
2018-11-02T16:10:36.585Z,53.71
2018-11-02T16:13:08.917Z,53.33
2018-11-02T16:15:39.024Z,53.58
2018-11-02T16:18:08.421Z,53.65
2018-11-02T16:20:46.020Z,53.78
2018-11-02T16:23:16.682Z,54.38
2018-11-02T16:25:49.832Z,54.17
2018-11-02T16:28:21.848Z,54.47
2018-11-02T16:30:51.959Z,53.95
2018-11-02T16:33:24.344Z,54.48
2018-11-02T16:35:53.531Z,54.59
2018-11-02T16:38:27.727Z,54.43
2018-11-02T16:41:10.385Z,55.02
2018-11-02T16:43:40.133Z,54.70
2018-11-02T16:46:09.351Z,54.67
2018-11-02T16:48:38.315Z,55.23
2018-11-02T16:51:07.209Z,55.38
2018-11-02T16:53:36.070Z,55.65
2018-11-02T16:56:06.391Z,55.45
2018-11-02T16:58:42.326Z,56.60
2018-11-02T17:01:12.383Z,56.66
2018-11-02T17:03:41.206Z,57.24
2018-11-02T17:06:10.442Z,57.23
2018-11-02T17:08:39.640Z,57.62
2018-11-02T17:11:08.602Z,58.08
2018-11-02T17:13:38.578Z,57.92
2018-11-02T17:18:41.859Z,58.27
2018-11-02T17:21:10.907Z,58.44
2018-11-02T17:23:40.290Z,58.15
2018-11-02T17:26:09.255Z,57.67
2018-11-02T17:28:43.706Z,58.42
2018-11-02T17:31:12.958Z,58.05
2018-11-02T17:33:42.154Z,57.98
2018-11-02T17:36:11.200Z,57.97
2018-11-02T17:38:40.397Z,58.06
2018-11-02T17:41:09.277Z,57.51
2018-11-02T17:43:52.770Z,58.26
2018-11-02T17:46:21.614Z,57.72
2018-11-02T17:48:50.729Z,57.91
2018-11-02T17:51:19.940Z,58.49
2018-11-02T17:53:48.831Z,58.20
2018-11-02T17:56:17.876Z,58.13
2018-11-02T17:58:47.162Z,58.71
2018-11-02T18:01:16.273Z,59.06
2018-11-02T18:03:45.356Z,58.93
2018-11-02T18:06:15.346Z,59.71
2018-11-02T18:08:44.430Z,60.09
2018-11-02T18:11:13.392Z,60.55
2018-11-02T18:13:42.856Z,61.45
2018-11-02T18:16:12.173Z,61.44
2018-11-02T18:18:41.948Z,61.41
2018-11-02T18:21:12.346Z,62.23
2018-11-02T18:23:42.195Z,62.91
2018-11-02T18:26:11.974Z,63.09
2018-11-02T18:28:41.761Z,63.17
2018-11-02T18:31:11.255Z,63.65
2018-11-02T18:33:40.847Z,63.86
2018-11-02T18:36:10.209Z,63.86
2018-11-02T18:38:39.724Z,64.13
2018-11-02T18:41:09.403Z,64.63
2018-11-02T18:43:39.945Z,64.48
2018-11-02T18:46:09.272Z,64.85
2018-11-02T18:48:40.292Z,64.61
2018-11-02T18:51:09.692Z,65.21
2018-11-02T18:53:39.034Z,64.74
2018-11-02T18:56:08.798Z,65.49
2018-11-02T18:58:38.205Z,65.31
2018-11-02T19:01:07.833Z,65.26
2018-11-02T19:03:37.898Z,64.83
2018-11-02T19:06:07.524Z,65.25
2018-11-02T19:08:37.006Z,64.99
2018-11-02T19:11:06.872Z,64.39
2018-11-02T19:13:36.439Z,63.56
2018-11-02T19:16:08.224Z,62.82
2018-11-02T19:18:38.131Z,62.09
2018-11-02T19:21:07.745Z,62.57
2018-11-02T19:23:37.547Z,62.33
2018-11-02T19:26:27.888Z,62.63
2018-11-02T19:29:00.864Z,62.92
2018-11-02T19:31:30.597Z,62.67
2018-11-02T19:34:00.422Z,63.25
2018-11-02T19:36:30.298Z,63.79
2018-11-02T19:38:59.661Z,64.59
2018-11-02T19:41:29.319Z,64.25
2018-11-02T19:43:59.072Z,63.38
2018-11-02T19:46:28.796Z,63.05
2018-11-02T19:48:58.421Z,62.73
2018-11-02T19:51:28.615Z,62.81
2018-11-02T19:53:58.157Z,62.10
2018-11-02T19:56:27.617Z,61.79
2018-11-02T19:58:57.241Z,62.07
2018-11-02T20:01:26.404Z,62.14
2018-11-02T20:04:02.496Z,60.88
2018-11-02T20:06:32.388Z,60.93
2018-11-02T20:09:01.778Z,60.22
2018-11-02T20:11:31.140Z,60.28
2018-11-02T20:14:00.957Z,60.52
2018-11-02T20:16:30.746Z,60.34
2018-11-02T20:19:00.241Z,60.50
2018-11-02T20:21:29.591Z,61.31
2018-11-02T20:23:59.041Z,61.18
2018-11-02T20:26:28.783Z,61.91
2018-11-02T20:28:58.294Z,61.67
2018-11-02T20:31:27.894Z,60.93
2018-11-02T20:36:34.962Z,61.25
2018-11-02T20:39:05.017Z,61.42
2018-11-02T20:41:34.558Z,60.87
2018-11-02T20:44:05.827Z,61.02
2018-11-02T20:46:36.219Z,61.80
2018-11-02T20:49:05.532Z,62.00
2018-11-02T20:51:35.007Z,61.83
2018-11-02T20:54:05.853Z,61.77
2018-11-02T20:56:35.578Z,61.68
2018-11-02T20:59:04.995Z,60.97
2018-11-02T21:01:34.495Z,60.54
2018-11-02T21:04:08.161Z,60.88
2018-11-02T21:06:37.431Z,61.00
2018-11-02T21:09:10.142Z,61.48
2018-11-02T21:11:38.931Z,60.50
2018-11-02T21:14:07.954Z,60.76
2018-11-02T21:16:37.312Z,60.61
2018-11-02T21:19:06.612Z,60.37
2018-11-02T21:21:35.674Z,60.28
2018-11-02T21:24:05.925Z,60.43
2018-11-02T21:26:34.966Z,60.90
2018-11-02T21:29:10.534Z,60.40
2018-11-02T21:31:39.534Z,60.65
2018-11-02T21:34:08.479Z,60.87
2018-11-02T21:36:37.709Z,60.67
2018-11-02T21:39:10.477Z,61.15
2018-11-02T21:41:39.530Z,60.92
2018-11-02T21:44:08.930Z,61.37
2018-11-02T21:46:37.905Z,61.33
2018-11-02T21:49:06.869Z,61.91
2018-11-02T21:51:36.123Z,61.72
2018-11-02T21:54:06.142Z,61.68
2018-11-02T21:56:41.249Z,62.12
2018-11-02T21:59:10.593Z,62.00
2018-11-02T22:01:39.746Z,62.45
2018-11-02T22:04:08.895Z,62.33
2018-11-02T22:06:38.180Z,62.56
2018-11-02T22:09:08.801Z,61.96
2018-11-02T22:11:37.812Z,62.48
2018-11-02T22:14:07.192Z,62.81
2018-11-02T22:16:37.102Z,62.68
2018-11-02T22:19:11.362Z,62.60
2018-11-02T22:21:40.338Z,62.43
2018-11-02T22:24:09.332Z,62.06
2018-11-02T22:26:38.648Z,62.47
2018-11-02T22:29:10.203Z,61.99
2018-11-02T22:31:39.247Z,61.80
2018-11-02T22:34:08.471Z,61.62
2018-11-02T22:36:37.419Z,61.54
2018-11-02T22:39:08.638Z,61.29
2018-11-02T22:41:37.654Z,61.42
2018-11-02T22:44:06.647Z,61.68
2018-11-02T22:46:35.646Z,62.05
2018-11-02T22:49:04.611Z,61.87
2018-11-02T22:51:33.490Z,61.97
2018-11-02T22:54:04.954Z,61.00
2018-11-02T22:56:33.876Z,61.76
2018-11-02T22:59:02.783Z,61.88
2018-11-02T23:01:32.164Z,61.71
2018-11-02T23:04:03.654Z,61.54
2018-11-02T23:06:32.527Z,61.62
2018-11-02T23:09:07.975Z,61.80
2018-11-02T23:11:37.715Z,62.16
2018-11-02T23:14:07.972Z,62.01
2018-11-02T23:16:38.232Z,61.70
2018-11-02T23:19:08.512Z,62.06
2018-11-02T23:21:38.308Z,62.34
2018-11-02T23:24:07.964Z,62.34
2018-11-02T23:26:38.527Z,61.79
2018-11-02T23:29:09.539Z,61.57
2018-11-02T23:31:39.275Z,61.93
2018-11-02T23:34:23.887Z,62.72
2018-11-02T23:36:53.862Z,62.70
2018-11-02T23:39:23.582Z,62.82
2018-11-02T23:41:52.562Z,62.25
2018-11-02T23:44:21.820Z,62.54
2018-11-02T23:46:50.658Z,62.61
2018-11-02T23:49:19.609Z,62.13
2018-11-02T23:51:48.592Z,62.30
2018-11-02T23:54:17.463Z,62.14
2018-11-02T23:56:46.471Z,62.13
2018-11-02T23:59:15.617Z,62.09
